createdAt,value
2023-03-04T00:03:58.749Z,86.60
2023-03-04T00:09:02.160Z,87.10
2023-03-04T00:14:05.256Z,86.70
2023-03-04T00:19:08.327Z,86.70
2023-03-04T00:24:11.323Z,86.70
2023-03-04T00:29:14.356Z,86.50
2023-03-04T00:34:17.313Z,86.40
2023-03-04T00:39:20.396Z,86.60
2023-03-04T00:44:23.847Z,87.20
2023-03-04T00:49:26.856Z,87.60
2023-03-04T00:54:29.924Z,88.40
2023-03-04T00:59:33.232Z,88.30
2023-03-04T01:04:37.029Z,88.10
2023-03-04T01:09:40.112Z,88.10
2023-03-04T01:14:43.289Z,88.10
2023-03-04T01:19:46.322Z,88.00
2023-03-04T01:24:49.256Z,88.30
2023-03-04T01:29:52.498Z,88.60
2023-03-04T01:34:55.497Z,88.90
2023-03-04T01:39:58.532Z,89.00
2023-03-04T01:45:02.417Z,89.60
2023-03-04T01:50:14.173Z,89.90
2023-03-04T01:55:20.638Z,90.20
2023-03-04T02:00:35.234Z,90.50
2023-03-04T02:05:43.987Z,90.60
2023-03-04T02:10:48.129Z,91.00
2023-03-04T02:15:51.256Z,91.10
2023-03-04T02:21:12.917Z,91.40
2023-03-04T02:26:26.038Z,91.70
2023-03-04T02:31:41.815Z,91.80
2023-03-04T02:36:47.368Z,92.00
2023-03-04T02:41:54.581Z,92.50
2023-03-04T02:46:59.160Z,92.70
2023-03-04T02:52:13.229Z,92.90
2023-03-04T02:57:16.392Z,93.20
2023-03-04T03:02:19.321Z,92.90
2023-03-04T03:07:23.368Z,92.40
2023-03-04T03:12:26.567Z,91.70
2023-03-04T03:17:29.650Z,91.20
2023-03-04T03:22:32.604Z,91.10
2023-03-04T03:27:35.924Z,91.10
2023-03-04T03:32:39.678Z,91.20
2023-03-04T03:37:42.516Z,91.30
2023-03-04T03:42:45.293Z,91.60
2023-03-04T03:47:48.244Z,91.80
2023-03-04T03:52:51.221Z,92.20
2023-03-04T03:57:54.245Z,92.40
2023-03-04T04:03:00.098Z,92.40
2023-03-04T04:08:03.179Z,92.30
2023-03-04T04:13:06.209Z,91.80
2023-03-04T04:18:09.865Z,91.50
2023-03-04T04:23:12.729Z,91.20
2023-03-04T04:28:15.805Z,91.00
2023-03-04T04:33:18.974Z,90.80
2023-03-04T04:38:21.979Z,90.50
2023-03-04T04:43:25.892Z,90.50
2023-03-04T04:48:29.461Z,90.70
2023-03-04T04:53:32.587Z,91.20
2023-03-04T04:58:36.809Z,91.60
2023-03-04T05:03:40.869Z,91.90
2023-03-04T05:08:43.726Z,92.00
2023-03-04T05:13:48.382Z,91.80
2023-03-04T05:18:51.520Z,91.80
2023-03-04T05:23:54.692Z,91.70
2023-03-04T05:28:57.945Z,91.60
2023-03-04T05:34:01.002Z,91.40
2023-03-04T05:39:04.069Z,91.50
2023-03-04T05:44:07.396Z,91.90
2023-03-04T05:49:10.399Z,92.50
2023-03-04T05:54:13.403Z,92.50
2023-03-04T05:59:20.600Z,92.50
2023-03-04T06:04:23.705Z,92.60
2023-03-04T06:09:29.842Z,92.70
2023-03-04T06:14:33.167Z,93.00
2023-03-04T06:19:38.065Z,93.40
2023-03-04T06:24:41.070Z,93.50
2023-03-04T06:29:44.193Z,93.80
2023-03-04T06:34:47.316Z,94.10
2023-03-04T06:39:50.651Z,94.00
2023-03-04T06:44:53.687Z,93.90
2023-03-04T06:49:57.322Z,93.60
2023-03-04T06:55:00.937Z,93.00
2023-03-04T07:00:05.870Z,92.60
2023-03-04T07:05:11.676Z,92.00
2023-03-04T07:10:14.692Z,92.00
2023-03-04T07:15:17.895Z,91.70
2023-03-04T07:20:21.414Z,91.60
2023-03-04T07:25:24.358Z,91.70
2023-03-04T07:30:30.630Z,91.90
2023-03-04T07:35:37.083Z,92.00
2023-03-04T07:40:42.807Z,91.70
2023-03-04T07:45:46.126Z,91.10
2023-03-04T07:50:49.154Z,90.40
2023-03-04T07:55:52.239Z,83.40
2023-03-04T08:00:55.294Z,81.20
2023-03-04T08:05:58.227Z,77.80
2023-03-04T08:11:10.953Z,70.40
2023-03-04T08:16:20.333Z,68.80
2023-03-04T08:21:26.448Z,66.90
2023-03-04T08:26:40.670Z,64.40
2023-03-04T08:31:48.805Z,62.90
2023-03-04T08:36:51.925Z,62.50
2023-03-04T08:41:55.092Z,61.80
2023-03-04T08:46:58.013Z,60.90
2023-03-04T08:52:01.885Z,61.30
2023-03-04T08:57:07.915Z,60.90
2023-03-04T09:02:11.359Z,58.70
2023-03-04T09:07:16.858Z,57.10
2023-03-04T09:12:19.866Z,56.90
2023-03-04T09:17:22.823Z,57.10
2023-03-04T09:22:25.984Z,56.90
2023-03-04T09:27:29.070Z,56.70
2023-03-04T09:32:32.653Z,56.40
2023-03-04T09:37:36.500Z,56.40
2023-03-04T09:42:47.895Z,56.90
2023-03-04T09:47:54.354Z,56.80
2023-03-04T09:53:08.000Z,55.30
2023-03-04T09:59:07.619Z,55.50
2023-03-04T10:04:14.207Z,55.20
2023-03-04T10:09:40.360Z,55.60
2023-03-04T10:14:51.292Z,56.00
2023-03-04T10:20:19.370Z,56.20
2023-03-04T10:25:29.794Z,57.70
2023-03-04T10:31:11.962Z,56.80
2023-03-04T10:36:30.368Z,55.90
2023-03-04T10:41:33.731Z,55.80
2023-03-04T10:46:42.707Z,55.20
2023-03-04T10:52:29.793Z,57.10
2023-03-04T10:57:41.516Z,57.20
2023-03-04T11:02:47.223Z,54.50
2023-03-04T11:08:00.860Z,52.10
2023-03-04T11:13:26.517Z,51.30
2023-03-04T11:18:52.485Z,50.50
2023-03-04T11:24:27.245Z,50.50
2023-03-04T11:29:58.220Z,50.50
2023-03-04T11:35:17.486Z,50.50
2023-03-04T11:40:44.374Z,50.20
2023-03-04T11:46:21.689Z,49.80
2023-03-04T11:51:27.693Z,49.60
2023-03-04T12:13:34.618Z,49.60
2023-03-04T12:54:26.285Z,51.60
2023-03-04T12:59:37.945Z,52.40
2023-03-04T13:05:07.883Z,52.00
2023-03-04T13:10:18.110Z,52.50
2023-03-04T13:15:34.977Z,52.60
2023-03-04T13:20:40.968Z,53.10
2023-03-04T13:25:56.644Z,52.70
2023-03-04T13:31:20.884Z,51.70
2023-03-04T13:36:31.936Z,50.10
2023-03-04T13:41:48.337Z,50.20
2023-03-04T13:46:51.969Z,50.10
2023-03-04T13:51:55.208Z,50.10
2023-03-04T13:57:01.447Z,50.10
2023-03-04T14:02:34.564Z,48.40
2023-03-04T14:07:37.982Z,47.20
2023-03-04T14:12:45.531Z,47.30
2023-03-04T14:17:58.922Z,47.80
2023-03-04T14:23:25.549Z,48.60
2023-03-04T14:28:28.578Z,48.40
2023-03-04T14:33:31.667Z,48.60
2023-03-04T14:38:38.234Z,49.30
2023-03-04T14:43:58.641Z,49.70
2023-03-04T14:49:02.471Z,50.30
2023-03-04T14:54:06.722Z,50.90
2023-03-04T14:59:13.673Z,51.10
2023-03-04T15:04:20.579Z,52.00
2023-03-04T15:09:27.220Z,51.90
2023-03-04T15:14:52.562Z,52.50
2023-03-04T15:20:11.257Z,53.10
2023-03-04T15:25:15.787Z,53.50
2023-03-04T15:30:30.419Z,54.10
2023-03-04T15:35:34.028Z,54.70
2023-03-04T15:40:45.758Z,54.10
2023-03-04T15:45:50.767Z,53.10
2023-03-04T15:51:01.363Z,52.60
2023-03-04T15:56:22.116Z,52.40
2023-03-04T16:01:25.637Z,52.40
2023-03-04T16:06:32.271Z,53.30
2023-03-04T16:11:44.280Z,54.00
2023-03-04T16:16:48.096Z,54.50
2023-03-04T16:21:51.175Z,54.90
2023-03-04T16:26:53.980Z,55.20
2023-03-04T16:31:56.977Z,55.70
2023-03-04T16:37:05.590Z,56.20
2023-03-04T16:42:22.747Z,56.20
2023-03-04T16:47:25.987Z,56.50
2023-03-04T16:52:33.504Z,57.00
2023-03-04T16:57:36.426Z,57.40
2023-03-04T17:02:39.582Z,57.80
2023-03-04T17:07:43.059Z,58.40
2023-03-04T17:12:46.021Z,58.70
2023-03-04T17:17:49.115Z,59.10
2023-03-04T17:22:53.651Z,59.70
2023-03-04T17:27:56.592Z,60.00
2023-03-04T17:32:59.725Z,60.80
2023-03-04T17:38:02.668Z,61.30
2023-03-04T17:43:11.377Z,62.20
2023-03-04T17:48:17.482Z,62.90
2023-03-04T17:53:21.173Z,63.70
2023-03-04T17:58:24.717Z,64.90
2023-03-04T18:03:27.655Z,65.50
2023-03-04T18:08:30.909Z,66.20
2023-03-04T18:13:34.005Z,66.70
2023-03-04T18:18:37.010Z,67.50
2023-03-04T18:23:40.198Z,67.80
2023-03-04T18:28:42.984Z,68.30
2023-03-04T18:33:47.121Z,69.50
2023-03-04T18:38:50.222Z,70.50
2023-03-04T18:43:53.330Z,72.00
2023-03-04T18:49:03.171Z,72.80
2023-03-04T18:54:07.002Z,73.80
2023-03-04T18:59:46.380Z,75.20
2023-03-04T19:04:50.711Z,74.50
2023-03-04T19:09:54.862Z,75.20
2023-03-04T19:14:58.895Z,76.00
2023-03-04T19:20:07.930Z,77.30
2023-03-04T19:25:12.078Z,77.40
2023-03-04T19:30:15.009Z,77.10
2023-03-04T19:35:18.363Z,77.10
2023-03-04T19:40:21.517Z,77.30
2023-03-04T19:45:25.515Z,77.20
2023-03-04T19:50:28.312Z,77.40
2023-03-04T19:55:36.273Z,77.60
2023-03-04T20:00:39.288Z,78.30
2023-03-04T20:05:42.306Z,78.50
2023-03-04T20:10:45.285Z,79.00
2023-03-04T20:15:48.439Z,79.40
2023-03-04T20:20:51.956Z,78.90
2023-03-04T20:25:56.143Z,78.80
2023-03-04T20:31:26.375Z,78.30
2023-03-04T20:36:31.135Z,78.40
2023-03-04T20:41:34.854Z,79.30
2023-03-04T20:46:43.194Z,79.30
2023-03-04T20:51:46.280Z,80.70
2023-03-04T20:56:49.770Z,82.30
2023-03-04T21:01:52.869Z,82.60
2023-03-04T21:06:55.834Z,82.50
2023-03-04T21:12:00.925Z,82.00
2023-03-04T21:17:05.729Z,81.90
2023-03-04T21:22:15.554Z,81.70
2023-03-04T21:27:19.758Z,81.80
2023-03-04T21:32:27.106Z,83.10
2023-03-04T21:37:30.218Z,84.90
2023-03-04T21:42:33.277Z,84.90
2023-03-04T21:47:36.486Z,85.90
2023-03-04T21:52:39.486Z,85.90
2023-03-04T21:57:42.562Z,87.50
2023-03-04T22:02:45.402Z,88.10
2023-03-04T22:07:48.337Z,88.60
2023-03-04T22:12:51.369Z,88.90
2023-03-04T22:17:54.366Z,88.60
2023-03-04T22:22:57.383Z,89.20
2023-03-04T22:28:00.627Z,89.70
2023-03-04T22:33:04.384Z,89.80
2023-03-04T22:38:07.526Z,90.20
2023-03-04T22:43:10.923Z,90.10
2023-03-04T22:48:14.600Z,90.60
2023-03-04T22:53:17.633Z,90.70
2023-03-04T22:58:20.411Z,90.80
2023-03-04T23:03:23.334Z,91.10
2023-03-04T23:08:26.268Z,91.30
2023-03-04T23:13:29.746Z,91.20
2023-03-04T23:18:32.866Z,91.40
2023-03-04T23:23:36.652Z,91.40
2023-03-04T23:28:39.851Z,91.80
2023-03-04T23:33:47.870Z,91.80
2023-03-04T23:38:51.033Z,91.80
2023-03-04T23:43:55.931Z,91.90
2023-03-04T23:48:58.988Z,92.00
2023-03-04T23:54:02.028Z,92.30
2023-03-04T23:59:07.887Z,92.50
